Time;durP1;ratioP1;P1;durP2;ratioP2;P2;SDS_P1;SDS_P2;PMS_P1;PMS_P2;Temp;Humidity;BMP_temperature;BMP_pressure;BME280_temperature;BME280_humidity;BME280_pressure;Samples;Min_cycle;Max_cycle;Signal;HPM_P1;HPM_P2
2023/04/22 00:00:54;;;;;;;15.38;7.30;;;;;;;8.47;100.00;100576.84;4964742;28;20046;-75
2023/04/22 00:03:22;;;;;;;13.55;7.10;;;;;;;8.41;100.00;100580.00;4963158;28;20042;-75
2023/04/22 00:05:48;;;;;;;9.18;6.63;;;;;;;8.38;100.00;100575.91;4962807;28;20151;-75
2023/04/22 00:08:13;;;;;;;11.05;6.20;;;;;;;8.34;100.00;100575.44;4945356;28;20075;-75
2023/04/22 00:10:39;;;;;;;9.85;6.45;;;;;;;8.28;100.00;100563.06;4995977;28;20035;-75
2023/04/22 00:13:04;;;;;;;9.52;5.63;;;;;;;8.23;100.00;100570.47;4992080;28;20047;-75
2023/04/22 00:15:30;;;;;;;11.77;6.10;;;;;;;8.17;100.00;100568.44;4997426;28;20037;-75
2023/04/22 00:17:57;;;;;;;10.38;6.18;;;;;;;8.14;100.00;100571.34;4963385;28;20409;-75
2023/04/22 00:20:23;;;;;;;15.10;6.47;;;;;;;8.10;100.00;100567.41;4964936;28;20576;-75
2023/04/22 00:22:49;;;;;;;11.02;6.68;;;;;;;8.06;100.00;100558.31;4973762;28;20085;-75
2023/04/22 00:25:15;;;;;;;9.88;6.78;;;;;;;8.06;100.00;100560.91;4968545;28;20030;-75
2023/04/22 00:27:40;;;;;;;10.90;7.20;;;;;;;8.08;100.00;100559.00;4951284;28;20066;-75
2023/04/22 00:30:06;;;;;;;15.13;7.18;;;;;;;8.12;100.00;100562.94;4973853;28;20109;-75
2023/04/22 00:32:32;;;;;;;12.63;6.80;;;;;;;8.14;100.00;100566.97;4973304;28;20042;-75
2023/04/22 00:34:57;;;;;;;10.40;6.88;;;;;;;8.18;100.00;100568.31;4988802;28;20038;-75
2023/04/22 00:37:23;;;;;;;13.65;7.60;;;;;;;8.18;100.00;100557.97;4961492;28;20038;-75
2023/04/22 00:39:49;;;;;;;10.38;6.85;;;;;;;8.19;100.00;100553.63;4962390;28;20094;-75
2023/04/22 00:42:15;;;;;;;12.55;7.97;;;;;;;8.16;100.00;100559.91;4965821;28;20058;-75
2023/04/22 00:44:41;;;;;;;14.70;7.90;;;;;;;8.18;100.00;100565.72;4976060;28;20134;-75
2023/04/22 00:47:08;;;;;;;11.73;6.93;;;;;;;8.20;100.00;100560.44;4963212;28;20034;-75
2023/04/22 00:49:35;;;;;;;13.48;7.70;;;;;;;8.21;100.00;100556.06;4996617;28;20031;-74
2023/04/22 00:52:02;;;;;;;11.38;7.85;;;;;;;8.20;100.00;100557.84;4969656;28;20031;-75
2023/04/22 00:54:28;;;;;;;11.30;7.00;;;;;;;8.15;100.00;100547.13;4994511;28;20504;-75
2023/04/22 00:56:55;;;;;;;12.50;7.38;;;;;;;8.10;100.00;100542.41;4963984;28;20023;-75
2023/04/22 00:59:22;;;;;;;16.77;7.22;;;;;;;8.02;100.00;100552.63;4962891;28;20042;-75
2023/04/22 01:01:47;;;;;;;10.60;6.53;;;;;;;7.97;100.00;100552.28;4952252;28;20493;-75
2023/04/22 01:04:14;;;;;;;12.85;7.15;;;;;;;7.94;100.00;100552.56;4995359;28;20035;-75
2023/04/22 01:06:40;;;;;;;12.93;7.53;;;;;;;7.91;100.00;100553.66;4963912;28;20121;-75
2023/04/22 01:09:06;;;;;;;12.75;7.70;;;;;;;7.92;100.00;100557.88;4993214;28;20035;-75
2023/04/22 01:11:34;;;;;;;14.60;8.75;;;;;;;7.98;100.00;100557.28;4992182;28;20075;-75
2023/04/22 01:14:01;;;;;;;15.45;9.38;;;;;;;8.07;100.00;100554.81;4949264;28;20045;-75
2023/04/22 01:16:27;;;;;;;15.32;8.80;;;;;;;8.03;100.00;100561.22;4964348;28;20505;-75
2023/04/22 01:18:53;;;;;;;14.23;7.97;;;;;;;8.02;100.00;100552.63;4992097;28;20039;-75
2023/04/22 01:21:19;;;;;;;15.85;8.45;;;;;;;8.01;100.00;100551.03;4990990;28;20463;-74
2023/04/22 01:23:44;;;;;;;15.90;9.20;;;;;;;8.00;100.00;100546.81;4994288;28;20039;-75
2023/04/22 01:26:10;;;;;;;14.35;8.65;;;;;;;8.01;100.00;100547.66;4965437;28;20521;-75
2023/04/22 01:28:36;;;;;;;15.20;8.70;;;;;;;7.98;100.00;100541.78;4968387;28;20042;-74
2023/04/22 01:31:02;;;;;;;13.85;8.85;;;;;;;7.95;100.00;100534.34;4991179;28;20047;-75
2023/04/22 01:33:28;;;;;;;12.77;8.15;;;;;;;7.95;100.00;100536.13;4991063;28;20038;-75
2023/04/22 01:35:54;;;;;;;14.63;9.18;;;;;;;7.93;100.00;100538.00;4980519;28;20039;-74
2023/04/22 01:38:19;;;;;;;18.85;9.85;;;;;;;7.92;100.00;100533.81;4974788;28;20037;-75
2023/04/22 01:40:45;;;;;;;15.13;8.85;;;;;;;7.90;100.00;100541.72;4992885;28;20039;-75
2023/04/22 01:43:11;;;;;;;13.43;8.63;;;;;;;7.91;100.00;100550.25;4995297;28;20121;-75
2023/04/22 01:45:37;;;;;;;18.50;10.95;;;;;;;7.92;100.00;100546.72;4995098;28;20101;-75
2023/04/22 01:48:05;;;;;;;18.85;11.65;;;;;;;7.90;100.00;100544.28;4964671;28;21131;-74
2023/04/22 01:50:31;;;;;;;27.48;15.25;;;;;;;7.97;100.00;100541.94;4982832;28;20117;-75
2023/04/22 01:52:57;;;;;;;26.13;13.65;;;;;;;7.96;100.00;100542.91;4967925;28;20477;-74
2023/04/22 01:55:23;;;;;;;21.10;12.85;;;;;;;7.95;100.00;100547.25;4969898;28;20477;-74
2023/04/22 01:57:48;;;;;;;22.05;12.20;;;;;;;7.96;100.00;100546.28;4997923;28;20073;-74
2023/04/22 02:00:14;;;;;;;18.95;11.65;;;;;;;7.96;100.00;100548.88;4952888;28;20030;-75
2023/04/22 02:02:43;;;;;;;20.15;12.27;;;;;;;7.93;100.00;100551.75;4967480;28;20428;-75
2023/04/22 02:05:09;;;;;;;27.80;15.75;;;;;;;7.95;100.00;100549.84;4966951;28;20039;-74
2023/04/22 02:07:35;;;;;;;31.30;17.70;;;;;;;7.99;100.00;100543.41;4970170;28;20105;-75
2023/04/22 02:10:04;;;;;;;38.05;21.00;;;;;;;8.04;100.00;100545.56;4964300;28;20036;-74
2023/04/22 02:12:31;;;;;;;38.33;22.27;;;;;;;8.06;100.00;100533.34;4999726;28;20600;-74
2023/04/22 02:14:56;;;;;;;36.95;20.40;;;;;;;7.98;100.00;100546.94;4998588;28;20483;-74
2023/04/22 02:21:11;;;;;;;33.20;19.02;;;;;;;7.94;100.00;100548.19;4971366;28;20097;-74
2023/04/22 02:23:40;;;;;;;33.67;19.70;;;;;;;7.94;100.00;100544.81;4983247;28;20074;-74
2023/04/22 02:26:06;;;;;;;36.45;19.75;;;;;;;7.96;100.00;100554.03;4987510;28;20564;-75
2023/04/22 02:28:32;;;;;;;39.08;22.02;;;;;;;8.14;100.00;100545.53;4967000;28;20062;-74
2023/04/22 02:31:00;;;;;;;38.45;22.33;;;;;;;8.12;100.00;100539.69;4970240;28;20500;-74
2023/04/22 02:33:25;;;;;;;38.55;21.35;;;;;;;8.08;100.00;100535.75;4995099;28;20062;-74
2023/04/22 02:35:52;;;;;;;34.35;20.38;;;;;;;7.98;100.00;100534.03;4974424;28;20062;-75
2023/04/22 02:38:18;;;;;;;39.80;21.83;;;;;;;7.98;100.00;100533.22;4963465;28;20042;-74
2023/04/22 02:40:44;;;;;;;39.67;22.65;;;;;;;8.09;100.00;100525.28;4966365;28;20073;-74
2023/04/22 02:43:10;;;;;;;39.70;23.08;;;;;;;8.06;100.00;100532.50;4966102;28;20035;-74
2023/04/22 02:45:36;;;;;;;41.15;22.58;;;;;;;7.98;100.00;100520.31;4968985;28;20031;-74
2023/04/22 02:48:01;;;;;;;45.22;25.10;;;;;;;8.04;100.00;100519.72;4969889;28;20041;-74
2023/04/22 02:50:27;;;;;;;42.78;25.30;;;;;;;8.04;100.00;100527.47;4977665;28;20026;-74
2023/04/22 02:52:52;;;;;;;43.95;24.48;;;;;;;8.02;100.00;100520.84;4996329;28;20034;-75
2023/04/22 02:55:18;;;;;;;49.45;26.60;;;;;;;8.01;100.00;100512.28;4993002;28;20505;-75
2023/04/22 02:57:44;;;;;;;44.25;25.40;;;;;;;8.10;100.00;100506.25;4997581;28;20085;-74
2023/04/22 03:00:10;;;;;;;46.15;24.77;;;;;;;8.11;100.00;100504.47;4975193;28;20554;-74
2023/04/22 03:02:36;;;;;;;44.70;23.40;;;;;;;8.17;100.00;100498.72;4963880;28;20027;-75
2023/04/22 03:05:15;;;;;;;37.35;21.88;;;;;;;8.13;100.00;100498.19;4992685;28;20043;-74
2023/04/22 03:07:40;;;;;;;42.45;22.52;;;;;;;8.07;100.00;100506.53;4981533;28;20034;-75
2023/04/22 03:10:07;;;;;;;43.28;22.85;;;;;;;8.06;100.00;100501.50;4980881;28;20046;-74
2023/04/22 03:12:33;;;;;;;39.53;22.42;;;;;;;8.01;100.00;100499.38;4980531;28;20406;-74
2023/04/22 03:14:58;;;;;;;43.50;22.40;;;;;;;7.97;100.00;100504.03;5001017;28;20043;-74
2023/04/22 03:17:28;;;;;;;41.00;22.23;;;;;;;7.92;100.00;100495.09;4994993;28;20035;-75
2023/04/22 03:19:54;;;;;;;41.58;22.92;;;;;;;7.93;100.00;100499.28;4966627;28;21746;-75
2023/04/22 03:22:20;;;;;;;43.53;23.38;;;;;;;7.93;100.00;100489.78;4965176;28;20038;-75
2023/04/22 03:24:46;;;;;;;44.90;23.05;;;;;;;7.97;100.00;100491.13;4996015;28;20031;-75
2023/04/22 03:27:11;;;;;;;46.70;22.85;;;;;;;8.07;100.00;100491.03;4981863;28;20038;-75
2023/04/22 03:29:38;;;;;;;40.92;21.45;;;;;;;8.03;100.00;100488.91;4982036;28;20540;-75
2023/04/22 03:32:03;;;;;;;38.65;20.70;;;;;;;8.15;100.00;100495.47;4967268;28;20065;-74
2023/04/22 03:34:29;;;;;;;38.60;20.85;;;;;;;8.24;100.00;100484.25;4996604;28;20031;-75
2023/04/22 03:36:55;;;;;;;36.58;19.75;;;;;;;8.18;100.00;100480.50;4998340;28;20642;-75
2023/04/22 03:39:20;;;;;;;37.92;20.52;;;;;;;8.10;100.00;100477.00;4979489;28;20413;-75
2023/04/22 03:41:47;;;;;;;34.97;19.85;;;;;;;8.11;100.00;100479.44;4996136;28;20074;-75
2023/04/22 03:44:13;;;;;;;38.53;21.20;;;;;;;8.01;100.00;100468.41;4977956;28;20126;-75
2023/04/22 03:46:39;;;;;;;37.85;20.30;;;;;;;7.97;100.00;100478.22;4996277;28;20046;-75
2023/04/22 03:49:15;;;;;;;36.67;20.27;;;;;;;8.08;100.00;100473.78;4996454;28;20039;-75
2023/04/22 03:51:42;;;;;;;33.90;17.85;;;;;;;8.03;100.00;100479.38;4964132;28;20501;-75
2023/04/22 03:54:11;;;;;;;38.20;18.73;;;;;;;8.07;100.00;100479.91;4982136;28;20078;-75
2023/04/22 03:56:44;;;;;;;33.72;18.33;;;;;;;8.03;100.00;100469.06;4965323;28;20043;-75
2023/04/22 03:59:10;;;;;;;29.02;17.65;;;;;;;8.11;100.00;100461.38;4976244;28;20042;-75
2023/04/22 04:01:35;;;;;;;34.08;18.17;;;;;;;8.07;100.00;100465.22;4960183;28;20035;-75
2023/04/22 04:04:04;;;;;;;32.20;18.30;;;;;;;8.08;100.00;100459.09;4993265;28;20056;-75
2023/04/22 04:06:48;;;;;;;30.63;17.23;;;;;;;8.02;100.00;100464.03;4954360;28;20392;-75
2023/04/22 04:09:14;;;;;;;32.30;17.50;;;;;;;8.04;100.00;100451.78;4963797;28;20038;-75
2023/04/22 04:11:39;;;;;;;25.40;15.02;;;;;;;7.97;100.00;100457.56;4972567;28;20075;-75
2023/04/22 04:14:06;;;;;;;27.33;15.80;;;;;;;7.99;100.00;100442.72;4995208;28;20401;-75
2023/04/22 04:16:51;;;;;;;25.10;13.98;;;;;;;8.17;100.00;100454.81;4965330;28;20031;-75
2023/04/22 04:19:24;;;;;;;24.00;14.38;;;;;;;8.09;100.00;100455.56;4973047;28;20105;-75
2023/04/22 04:21:50;;;;;;;21.60;12.57;;;;;;;8.13;100.00;100456.88;4985812;23;20047;-76
2023/04/22 04:24:16;;;;;;;23.63;12.55;;;;;;;8.17;100.00;100447.06;4982122;28;20501;-76
2023/04/22 04:26:47;;;;;;;19.35;12.23;;;;;;;8.09;100.00;100447.81;4970315;28;20409;-77
2023/04/22 04:29:20;;;;;;;23.00;13.70;;;;;;;8.11;100.00;100447.66;4966888;28;20033;-76
2023/04/22 04:31:52;;;;;;;29.00;13.52;;;;;;;8.14;100.00;100439.63;4982025;28;20030;-76
2023/04/22 04:34:18;;;;;;;20.83;12.88;;;;;;;8.13;100.00;100438.78;4954499;28;20058;-76
2023/04/22 04:36:45;;;;;;;26.30;12.80;;;;;;;8.08;100.00;100433.28;4965215;28;20023;-76
2023/04/22 04:39:18;;;;;;;23.55;12.02;;;;;;;8.07;100.00;100434.22;4959322;28;20039;-76
2023/04/22 04:41:44;;;;;;;22.23;11.77;;;;;;;8.08;100.00;100442.78;4959588;28;20177;-76
2023/04/22 04:44:11;;;;;;;21.92;12.18;;;;;;;8.15;100.00;100443.81;4944934;28;20031;-76
2023/04/22 04:46:37;;;;;;;18.42;12.13;;;;;;;8.10;100.00;100441.69;4930053;28;20058;-76
2023/04/22 04:49:05;;;;;;;21.42;13.23;;;;;;;8.09;100.00;100432.31;4946973;28;20063;-76
2023/04/22 04:51:37;;;;;;;18.35;12.05;;;;;;;8.08;100.00;100435.03;4961457;28;20086;-76
2023/04/22 04:54:03;;;;;;;18.33;11.60;;;;;;;8.20;100.00;100444.19;4927453;28;20046;-76
2023/04/22 04:56:34;;;;;;;17.70;10.70;;;;;;;8.15;100.00;100434.28;4963683;28;20031;-76
2023/04/22 04:58:59;;;;;;;17.52;10.52;;;;;;;8.14;100.00;100424.94;4945149;28;20410;-76
2023/04/22 05:01:26;;;;;;;16.27;10.10;;;;;;;8.24;100.00;100417.09;4945357;28;20034;-76
2023/04/22 05:03:55;;;;;;;17.52;9.02;;;;;;;8.37;100.00;100422.69;4961958;28;20045;-76
2023/04/22 05:06:21;;;;;;;16.05;9.85;;;;;;;8.33;100.00;100421.38;4955364;28;20036;-75
2023/04/22 05:08:51;;;;;;;14.45;8.95;;;;;;;8.36;100.00;100415.91;4961996;28;20043;-75
2023/04/22 05:11:18;;;;;;;14.73;9.75;;;;;;;8.37;100.00;100419.28;4945553;28;20038;-76
2023/04/22 05:13:47;;;;;;;17.40;11.00;;;;;;;8.34;100.00;100409.25;4944893;28;20039;-75
2023/04/22 05:16:18;;;;;;;18.55;12.57;;;;;;;8.46;100.00;100409.88;4959699;28;20031;-76
2023/04/22 05:18:45;;;;;;;21.30;13.77;;;;;;;8.45;100.00;100409.03;4947853;28;20031;-76
2023/04/22 05:21:13;;;;;;;20.20;12.90;;;;;;;8.38;100.00;100419.16;4948333;28;20031;-75
2023/04/22 05:23:39;;;;;;;17.95;10.60;;;;;;;8.47;100.00;100422.63;4936686;28;20037;-75
2023/04/22 05:26:05;;;;;;;14.98;9.95;;;;;;;8.47;100.00;100416.63;4967463;28;20122;-76
2023/04/22 05:28:32;;;;;;;18.10;11.05;;;;;;;8.55;100.00;100432.19;4966976;28;20465;-75
2023/04/22 05:30:57;;;;;;;15.07;9.23;;;;;;;8.66;100.00;100426.78;4951005;28;20027;-75
2023/04/22 05:33:27;;;;;;;15.85;8.90;;;;;;;8.68;100.00;100419.69;4962298;28;20070;-75
2023/04/22 05:35:53;;;;;;;14.75;8.55;;;;;;;8.66;100.00;100425.97;4961496;28;20047;-76
2023/04/22 05:38:19;;;;;;;16.70;8.35;;;;;;;8.73;100.00;100429.56;4952709;28;20039;-75
2023/04/22 05:40:44;;;;;;;14.00;8.60;;;;;;;8.85;100.00;100423.16;4947775;28;20035;-75
2023/04/22 05:43:12;;;;;;;12.05;7.57;;;;;;;8.91;100.00;100421.72;4949262;28;20049;-76
2023/04/22 05:45:40;;;;;;;15.32;9.05;;;;;;;9.00;100.00;100431.16;4964638;28;20039;-75
2023/04/22 05:48:07;;;;;;;12.88;7.72;;;;;;;9.03;100.00;100427.47;4963301;28;20525;-76
2023/04/22 05:50:38;;;;;;;17.70;7.78;;;;;;;9.07;100.00;100423.59;4964058;28;20256;-75
2023/04/22 05:53:07;;;;;;;11.20;7.40;;;;;;;9.23;100.00;100420.25;4945260;28;20038;-75
2023/04/22 05:55:33;;;;;;;13.52;7.78;;;;;;;9.20;100.00;100420.59;4964663;28;20031;-76
2023/04/22 05:57:59;;;;;;;18.45;6.93;;;;;;;9.26;100.00;100423.34;4943602;28;20043;-75
2023/04/22 06:00:51;;;;;;;12.75;6.85;;;;;;;9.23;100.00;100430.59;4930879;28;20062;-75
2023/04/22 06:03:36;;;;;;;12.80;6.78;;;;;;;9.35;100.00;100429.38;4943706;28;20050;-76
2023/04/22 06:06:02;;;;;;;11.20;7.70;;;;;;;9.35;100.00;100426.78;4961597;28;20591;-74
2023/04/22 06:08:29;;;;;;;12.20;7.18;;;;;;;9.47;100.00;100425.50;4948055;28;20044;-76
2023/04/22 06:10:55;;;;;;;12.23;8.15;;;;;;;9.68;100.00;100419.09;4943901;28;20509;-74
2023/04/22 06:13:22;;;;;;;11.48;7.40;;;;;;;9.90;100.00;100422.84;4947165;28;20058;-74
2023/04/22 06:15:48;;;;;;;14.27;7.70;;;;;;;9.92;100.00;100420.91;4931984;29;20035;-76
2023/04/22 06:18:13;;;;;;;10.95;7.15;;;;;;;9.96;100.00;100417.00;4962062;28;20575;-76
2023/04/22 06:20:39;;;;;;;13.85;8.10;;;;;;;10.03;100.00;100420.59;4948803;28;20071;-75
2023/04/22 06:23:04;;;;;;;12.15;7.57;;;;;;;10.04;100.00;100411.84;4932746;28;20039;-75
2023/04/22 06:25:31;;;;;;;13.23;7.45;;;;;;;10.07;100.00;100410.72;4949510;28;20077;-74
2023/04/22 06:27:57;;;;;;;12.25;7.32;;;;;;;10.14;100.00;100409.91;4930265;28;20054;-75
2023/04/22 06:30:23;;;;;;;12.20;7.43;;;;;;;10.20;100.00;100420.59;4948007;28;20047;-75
2023/04/22 06:32:51;;;;;;;11.20;7.38;;;;;;;10.22;100.00;100403.09;4949758;28;20035;-75
2023/04/22 06:35:16;;;;;;;9.65;6.47;;;;;;;10.26;100.00;100409.56;4963886;28;20119;-76
2023/04/22 06:37:42;;;;;;;9.88;6.47;;;;;;;10.35;100.00;100410.41;4946952;28;20126;-75
2023/04/22 06:40:08;;;;;;;11.70;6.43;;;;;;;10.51;100.00;100415.59;4946395;28;20043;-74
2023/04/22 06:42:45;;;;;;;13.98;8.27;;;;;;;10.57;100.00;100417.50;4949722;28;20458;-75
2023/04/22 06:45:39;;;;;;;9.63;6.20;;;;;;;10.72;100.00;100415.06;4945516;28;20031;-75
2023/04/22 06:48:26;;;;;;;10.38;6.45;;;;;;;10.93;100.00;100408.50;4962781;28;20057;-76
2023/04/22 06:51:24;;;;;;;12.30;6.82;;;;;;;11.19;100.00;100414.25;4927384;28;20039;-75
2023/04/22 06:53:49;;;;;;;11.10;7.00;;;;;;;11.39;100.00;100412.00;4961669;28;20031;-75
2023/04/22 06:56:15;;;;;;;10.50;6.78;;;;;;;11.69;100.00;100406.97;4949265;28;20397;-75
2023/04/22 06:58:40;;;;;;;10.15;5.63;;;;;;;11.96;100.00;100404.84;4949479;28;20055;-75
2023/04/22 07:01:06;;;;;;;8.43;5.57;;;;;;;12.36;99.89;100402.91;4947920;28;20039;-75
2023/04/22 07:03:32;;;;;;;16.38;5.65;;;;;;;12.76;97.40;100399.06;4947727;28;20050;-74
2023/04/22 07:06:03;;;;;;;8.63;5.97;;;;;;;13.13;94.49;100399.13;4961161;28;20027;-74
2023/04/22 07:08:30;;;;;;;9.70;5.55;;;;;;;13.20;92.02;100406.03;4943150;28;20042;-76
2023/04/22 07:10:56;;;;;;;9.93;5.40;;;;;;;13.70;91.11;100400.97;4946255;28;20035;-76
2023/04/22 07:13:33;;;;;;;6.07;4.55;;;;;;;14.23;85.55;100400.63;4938099;28;20039;-75
2023/04/22 07:15:59;;;;;;;9.35;4.82;;;;;;;14.71;84.07;100392.94;4968184;28;20501;-75
2023/04/22 07:18:25;;;;;;;7.60;5.35;;;;;;;15.29;82.23;100374.25;4964932;28;20054;-76
2023/04/22 07:20:50;;;;;;;9.70;4.97;;;;;;;14.89;81.07;100371.53;4967788;28;20035;-75
2023/04/22 07:23:16;;;;;;;6.93;4.95;;;;;;;14.79;82.36;100381.53;4982045;28;20062;-75
2023/04/22 07:25:41;;;;;;;9.02;5.15;;;;;;;14.94;80.10;100379.59;4982680;28;20043;-75
2023/04/22 07:28:07;;;;;;;7.88;5.65;;;;;;;15.22;79.62;100373.47;4969300;28;20034;-75
2023/04/22 07:30:32;;;;;;;8.27;4.57;;;;;;;15.53;78.93;100372.91;4950226;28;20034;-76
2023/04/22 07:32:58;;;;;;;10.38;4.90;;;;;;;15.90;77.08;100370.75;4968616;28;20054;-76
2023/04/22 07:35:23;;;;;;;9.23;4.93;;;;;;;16.40;76.18;100359.84;4978762;28;20042;-75
2023/04/22 07:37:49;;;;;;;8.05;5.20;;;;;;;16.50;74.55;100365.47;4965697;28;20027;-76
2023/04/22 07:40:15;;;;;;;7.15;5.00;;;;;;;16.21;73.47;100361.47;4982962;28;20038;-76
2023/04/22 07:42:40;;;;;;;7.63;5.00;;;;;;;16.47;74.12;100349.38;4980947;28;20042;-76
2023/04/22 07:45:06;;;;;;;6.30;4.57;;;;;;;16.34;74.41;100347.56;4966869;28;20038;-76
2023/04/22 07:47:32;;;;;;;7.78;4.82;;;;;;;16.60;75.35;100345.91;4968521;28;20030;-76
2023/04/22 07:49:57;;;;;;;5.95;4.60;;;;;;;16.78;73.28;100351.25;4961714;28;20043;-76
2023/04/22 07:52:23;;;;;;;6.72;4.55;;;;;;;16.52;72.18;100346.94;4965442;28;20087;-76
2023/04/22 07:54:48;;;;;;;9.30;5.70;;;;;;;16.56;73.46;100345.50;4965794;28;20039;-76
2023/04/22 07:57:14;;;;;;;8.63;5.45;;;;;;;16.31;73.31;100356.66;4965733;28;20110;-76
2023/04/22 07:59:39;;;;;;;9.25;4.53;;;;;;;16.42;73.32;100352.56;4980115;28;20047;-75
2023/04/22 08:02:05;;;;;;;8.02;4.40;;;;;;;16.85;71.45;100349.44;4981605;28;20400;-75
2023/04/22 08:04:30;;;;;;;6.40;4.55;;;;;;;16.84;70.90;100347.84;4962461;28;20053;-77
2023/04/22 08:06:56;;;;;;;7.35;4.50;;;;;;;17.20;70.92;100341.22;4966367;28;20065;-76
2023/04/22 08:09:21;;;;;;;9.77;4.60;;;;;;;17.73;69.86;100349.75;4968465;28;20112;-77
2023/04/22 08:11:47;;;;;;;7.82;4.22;;;;;;;17.69;69.14;100341.50;4966832;28;20121;-75
2023/04/22 08:14:12;;;;;;;8.95;4.10;;;;;;;17.74;69.60;100333.78;4963226;28;20074;-76
2023/04/22 08:16:38;;;;;;;6.25;3.47;;;;;;;17.96;68.27;100323.75;4947914;28;20038;-76
2023/04/22 08:19:04;;;;;;;8.65;3.58;;;;;;;17.87;65.49;100325.81;4961326;28;20050;-76
2023/04/22 08:21:30;;;;;;;5.57;3.35;;;;;;;17.94;65.79;100317.91;4945725;28;20031;-76
2023/04/22 08:23:55;;;;;;;6.45;3.28;;;;;;;18.22;66.17;100319.25;4947598;28;20058;-76
2023/04/22 08:26:21;;;;;;;5.07;3.58;;;;;;;18.43;66.49;100329.31;4946265;28;20118;-76
2023/04/22 08:28:47;;;;;;;4.85;3.33;;;;;;;17.85;67.13;100324.44;4961433;28;20039;-77
2023/04/22 08:31:12;;;;;;;4.88;2.90;;;;;;;17.54;64.46;100323.47;4943872;28;20042;-76
2023/04/22 08:33:41;;;;;;;5.93;2.70;;;;;;;17.63;65.01;100316.13;4954394;28;20046;-76
2023/04/22 08:36:07;;;;;;;4.38;2.90;;;;;;;18.29;62.77;100309.50;4962096;28;20034;-76
2023/04/22 08:38:33;;;;;;;4.78;2.67;;;;;;;18.74;62.39;100318.84;4966776;28;20089;-77
2023/04/22 08:40:59;;;;;;;5.03;3.00;;;;;;;18.88;60.82;100309.81;4950906;28;20428;-77
2023/04/22 08:43:25;;;;;;;5.00;2.40;;;;;;;19.02;59.71;100311.25;4968086;28;20054;-77
2023/04/22 08:45:51;;;;;;;3.28;2.42;;;;;;;19.37;59.15;100315.00;4978463;28;20066;-77
2023/04/22 08:48:18;;;;;;;6.90;2.70;;;;;;;19.53;60.20;100305.63;4962069;28;20071;-78
2023/04/22 08:50:46;;;;;;;4.70;2.90;;;;;;;19.48;57.63;100303.69;4945084;28;20043;-78
2023/04/22 08:53:12;;;;;;;8.18;2.42;;;;;;;19.27;57.05;100299.78;4965215;28;20050;-76
2023/04/22 08:55:39;;;;;;;3.42;2.15;;;;;;;19.39;58.44;100297.16;4941449;28;20081;-78
2023/04/22 08:58:05;;;;;;;3.13;2.05;;;;;;;19.80;58.28;100285.00;4957808;28;20048;-78
2023/04/22 09:00:33;;;;;;;4.75;2.70;;;;;;;20.57;56.90;100287.38;4948481;28;20038;-77
2023/04/22 09:03:03;;;;;;;4.03;2.25;;;;;;;20.92;54.49;100278.53;4946494;28;21128;-76
2023/04/22 09:05:32;;;;;;;5.25;2.17;;;;;;;20.14;54.26;100285.19;4946750;28;20039;-75
2023/04/22 09:07:57;;;;;;;7.40;2.53;;;;;;;19.68;56.03;100289.41;4968276;28;20063;-74
2023/04/22 09:10:23;;;;;;;4.35;2.22;;;;;;;19.72;56.14;100286.16;4948336;28;20065;-75
2023/04/22 09:12:50;;;;;;;3.70;2.00;;;;;;;19.58;56.41;100282.91;4958818;28;20031;-76
2023/04/22 09:15:15;;;;;;;4.43;2.20;;;;;;;19.83;57.55;100280.09;4959983;28;20581;-76
2023/04/22 09:17:42;;;;;;;2.88;1.75;;;;;;;20.15;57.36;100284.16;4949186;28;20046;-75
2023/04/22 09:20:08;;;;;;;2.97;2.13;;;;;;;19.89;55.32;100278.38;4950021;28;20062;-75
2023/04/22 09:22:45;;;;;;;9.95;2.58;;;;;;;20.31;54.73;100275.53;4934271;28;20042;-75
2023/04/22 09:25:22;;;;;;;5.03;2.22;;;;;;;20.37;54.93;100266.72;4962273;28;20039;-76
2023/04/22 09:27:58;;;;;;;2.95;2.20;;;;;;;20.57;53.98;100265.50;4955333;28;20105;-75
2023/04/22 09:30:36;;;;;;;5.03;2.50;;;;;;;19.99;54.89;100270.69;4972106;28;20032;-74
2023/04/22 09:33:04;;;;;;;6.40;2.10;;;;;;;19.56;56.54;100263.13;4980369;28;20039;-77
2023/04/22 09:35:31;;;;;;;2.75;1.95;;;;;;;19.24;56.79;100279.19;4979526;28;20042;-74
2023/04/22 09:37:59;;;;;;;4.75;1.98;;;;;;;19.64;57.39;100276.72;4965152;28;20031;-75
2023/04/22 09:40:25;;;;;;;3.20;1.90;;;;;;;19.38;56.70;100275.34;4961766;28;20559;-74
2023/04/22 09:42:57;;;;;;;4.00;2.28;;;;;;;19.33;57.59;100283.09;4962399;28;20038;-76
2023/04/22 09:45:33;;;;;;;3.30;2.28;;;;;;;19.35;58.35;100283.69;4979848;28;20035;-76
2023/04/22 09:48:02;;;;;;;4.43;1.85;;;;;;;19.31;59.41;100279.09;4978862;28;20400;-76
2023/04/22 09:50:28;;;;;;;5.35;1.92;;;;;;;19.49;58.70;100276.38;4965639;28;20070;-76
2023/04/22 09:53:03;;;;;;;5.55;1.83;;;;;;;19.99;57.18;100270.69;4980672;28;20464;-76
2023/04/22 09:55:30;;;;;;;3.00;1.83;;;;;;;20.27;55.83;100274.41;4965820;28;20030;-76
2023/04/22 09:57:56;;;;;;;5.60;2.00;;;;;;;20.48;54.27;100272.19;4965077;28;20041;-75
2023/04/22 10:00:26;;;;;;;3.05;1.90;;;;;;;20.61;53.53;100264.81;4964469;28;20516;-75
2023/04/22 10:02:51;;;;;;;5.28;1.73;;;;;;;20.62;52.24;100268.25;4964424;28;20065;-75
2023/04/22 10:05:17;;;;;;;5.90;2.00;;;;;;;20.75;51.89;100270.59;4983199;28;20038;-76
2023/04/22 10:07:43;;;;;;;4.32;2.47;;;;;;;20.50;51.42;100270.91;4967876;28;20031;-78
2023/04/22 10:10:09;;;;;;;3.33;1.60;;;;;;;20.40;52.09;100260.97;4967963;28;20041;-76
2023/04/22 10:12:36;;;;;;;3.88;1.67;;;;;;;20.78;53.00;100272.78;4967071;28;20117;-75
2023/04/22 10:15:03;;;;;;;4.55;2.10;;;;;;;20.71;55.35;100264.22;4983052;28;20433;-77
2023/04/22 10:17:31;;;;;;;9.05;2.60;;;;;;;20.63;53.41;100263.81;4966906;28;20046;-76
2023/04/22 10:20:05;;;;;;;9.20;1.88;;;;;;;20.80;54.35;100259.38;4969360;28;20034;-76
2023/04/22 10:22:32;;;;;;;4.90;2.38;;;;;;;21.06;53.67;100263.25;4969202;28;20034;-75
2023/04/22 10:24:58;;;;;;;7.00;2.38;;;;;;;20.76;53.44;100258.25;4974086;28;20039;-76
2023/04/22 10:27:23;;;;;;;5.47;2.25;;;;;;;20.83;53.08;100256.25;4965885;28;20133;-76
2023/04/22 10:29:49;;;;;;;6.25;2.85;;;;;;;20.88;54.08;100245.81;4964521;28;20129;-75
2023/04/22 10:32:17;;;;;;;6.07;2.03;;;;;;;21.11;52.69;100263.31;4981777;28;20085;-76
2023/04/22 10:34:46;;;;;;;4.35;2.30;;;;;;;21.08;52.58;100255.06;4965962;28;20074;-75
2023/04/22 10:37:13;;;;;;;4.38;2.00;;;;;;;21.14;53.19;100257.56;4971837;28;20033;-75
2023/04/22 10:39:40;;;;;;;5.43;2.05;;;;;;;21.44;52.76;100266.22;4969678;28;20134;-76
2023/04/22 10:42:09;;;;;;;7.03;2.20;;;;;;;21.47;52.23;100258.63;4988887;28;20070;-76
2023/04/22 10:44:47;;;;;;;7.97;2.33;;;;;;;21.78;52.46;100257.22;4970291;28;20057;-76
2023/04/22 10:47:26;;;;;;;5.05;1.80;;;;;;;21.97;52.32;100256.94;4968478;28;20039;-76
2023/04/22 10:50:11;;;;;;;4.43;1.98;;;;;;;21.56;51.45;100261.66;4981845;28;20528;-77
2023/04/22 10:52:37;;;;;;;3.70;2.10;;;;;;;21.31;51.72;100254.94;4967498;28;20034;-75
2023/04/22 10:55:03;;;;;;;3.78;1.80;;;;;;;21.47;52.37;100257.81;4968544;28;20049;-75
2023/04/22 10:57:40;;;;;;;13.15;2.85;;;;;;;21.45;53.26;100263.34;4967918;28;20141;-78
2023/04/22 11:00:21;;;;;;;3.15;2.03;;;;;;;21.63;52.18;100264.13;4968037;28;20050;-75
2023/04/22 11:02:55;;;;;;;4.82;2.13;;;;;;;21.68;51.12;100267.66;4968648;28;20089;-74
2023/04/22 11:05:26;;;;;;;5.78;2.17;;;;;;;21.49;50.99;100248.66;4982409;28;20031;-74
2023/04/22 11:07:53;;;;;;;5.57;2.20;;;;;;;21.29;52.42;100250.94;4968397;28;20507;-74
2023/04/22 11:10:31;;;;;;;5.47;2.35;;;;;;;20.97;53.18;100240.94;4968453;28;20173;-75
2023/04/22 11:12:56;;;;;;;7.72;2.30;;;;;;;21.03;53.15;100247.91;4969159;28;20030;-77
2023/04/22 11:15:23;;;;;;;5.55;2.30;;;;;;;21.33;51.79;100246.78;4969377;28;20081;-77
2023/04/22 11:17:53;;;;;;;7.22;2.40;;;;;;;21.58;53.17;100238.47;4984325;28;20509;-75
2023/04/22 11:20:20;;;;;;;6.28;2.28;;;;;;;21.94;52.22;100226.56;4967689;28;20535;-76
2023/04/22 11:22:52;;;;;;;5.05;2.33;;;;;;;22.19;50.90;100233.19;4961862;28;20049;-76